sensor_id;sensor_type;location;lat;lon;timestamp;pressure;altitude;pressure_sealevel;temperature;humidity
53011;BME280;42803;55.762;38.084;2023-04-29T00:01:08;99298.75;;;3.63;100.00
53011;BME280;42803;55.762;38.084;2023-04-29T00:03:37;99285.34;;;3.58;100.00
53011;BME280;42803;55.762;38.084;2023-04-29T00:06:07;99275.03;;;3.58;100.00
53011;BME280;42803;55.762;38.084;2023-04-29T00:08:39;99274.44;;;3.52;100.00
53011;BME280;42803;55.762;38.084;2023-04-29T00:11:08;99288.53;;;3.47;100.00
53011;BME280;42803;55.762;38.084;2023-04-29T00:13:38;99270.91;;;3.43;100.00
53011;BME280;42803;55.762;38.084;2023-04-29T00:16:09;99274.44;;;3.44;100.00
53011;BME280;42803;55.762;38.084;2023-04-29T00:18:38;99276.84;;;3.42;100.00
53011;BME280;42803;55.762;38.084;2023-04-29T00:21:07;99284.13;;;3.37;100.00
53011;BME280;42803;55.762;38.084;2023-04-29T00:23:36;99265.63;;;3.33;100.00
53011;BME280;42803;55.762;38.084;2023-04-29T00:26:06;99250.72;;;3.30;100.00
53011;BME280;42803;55.762;38.084;2023-04-29T00:28:42;99258.13;;;3.18;100.00
53011;BME280;42803;55.762;38.084;2023-04-29T00:31:11;99255.38;;;3.08;100.00
53011;BME280;42803;55.762;38.084;2023-04-29T00:33:45;99263.28;;;3.10;100.00
53011;BME280;42803;55.762;38.084;2023-04-29T00:36:14;99282.06;;;3.09;100.00
53011;BME280;42803;55.762;38.084;2023-04-29T00:38:44;99281.59;;;3.04;100.00
53011;BME280;42803;55.762;38.084;2023-04-29T00:41:14;99283.84;;;3.01;100.00
53011;BME280;42803;55.762;38.084;2023-04-29T00:46:30;99266.53;;;2.83;100.00
53011;BME280;42803;55.762;38.084;2023-04-29T00:49:00;99248.00;;;2.78;100.00
53011;BME280;42803;55.762;38.084;2023-04-29T00:51:29;99214.94;;;2.74;100.00
53011;BME280;42803;55.762;38.084;2023-04-29T00:54:00;99206.91;;;2.71;100.00
53011;BME280;42803;55.762;38.084;2023-04-29T00:56:31;99236.59;;;2.67;100.00
53011;BME280;42803;55.762;38.084;2023-04-29T00:59:02;99238.84;;;2.56;100.00
53011;BME280;42803;55.762;38.084;2023-04-29T01:01:32;99229.91;;;2.61;100.00
53011;BME280;42803;55.762;38.084;2023-04-29T01:04:04;99252.44;;;2.55;100.00
53011;BME280;42803;55.762;38.084;2023-04-29T01:06:42;99254.44;;;2.57;100.00
53011;BME280;42803;55.762;38.084;2023-04-29T01:09:30;99260.47;;;2.49;100.00
53011;BME280;42803;55.762;38.084;2023-04-29T01:12:14;99269.88;;;2.49;100.00
53011;BME280;42803;55.762;38.084;2023-04-29T01:14:50;99268.97;;;2.48;100.00
53011;BME280;42803;55.762;38.084;2023-04-29T01:17:24;99268.63;;;2.45;100.00
53011;BME280;42803;55.762;38.084;2023-04-29T01:19:54;99276.34;;;2.45;100.00
53011;BME280;42803;55.762;38.084;2023-04-29T01:22:24;99281.31;;;2.43;100.00
53011;BME280;42803;55.762;38.084;2023-04-29T01:24:55;99280.41;;;2.43;100.00
53011;BME280;42803;55.762;38.084;2023-04-29T01:27:29;99277.09;;;2.44;100.00
53011;BME280;42803;55.762;38.084;2023-04-29T01:30:19;99281.94;;;2.41;100.00
53011;BME280;42803;55.762;38.084;2023-04-29T01:32:54;99283.44;;;2.39;100.00
53011;BME280;42803;55.762;38.084;2023-04-29T01:35:37;99282.94;;;2.34;100.00
53011;BME280;42803;55.762;38.084;2023-04-29T01:38:16;99286.44;;;2.35;100.00
53011;BME280;42803;55.762;38.084;2023-04-29T01:40:54;99279.78;;;2.37;100.00
53011;BME280;42803;55.762;38.084;2023-04-29T01:43:29;99289.88;;;2.27;100.00
53011;BME280;42803;55.762;38.084;2023-04-29T01:46:09;99294.78;;;2.16;100.00
53011;BME280;42803;55.762;38.084;2023-04-29T01:48:38;99299.41;;;2.03;100.00
53011;BME280;42803;55.762;38.084;2023-04-29T01:51:07;99308.59;;;2.01;100.00
53011;BME280;42803;55.762;38.084;2023-04-29T01:53:38;99301.25;;;1.88;100.00
53011;BME280;42803;55.762;38.084;2023-04-29T01:56:09;99303.81;;;1.88;100.00
53011;BME280;42803;55.762;38.084;2023-04-29T01:58:47;99301.19;;;1.80;100.00
53011;BME280;42803;55.762;38.084;2023-04-29T02:01:34;99310.06;;;1.75;100.00
53011;BME280;42803;55.762;38.084;2023-04-29T02:04:04;99302.13;;;1.64;100.00
53011;BME280;42803;55.762;38.084;2023-04-29T02:06:33;99328.25;;;1.60;100.00
53011;BME280;42803;55.762;38.084;2023-04-29T02:09:04;99310.41;;;1.62;100.00
53011;BME280;42803;55.762;38.084;2023-04-29T02:11:36;99318.03;;;1.53;100.00
53011;BME280;42803;55.762;38.084;2023-04-29T02:14:05;99305.19;;;1.53;100.00
53011;BME280;42803;55.762;38.084;2023-04-29T02:16:34;99294.22;;;1.47;100.00
53011;BME280;42803;55.762;38.084;2023-04-29T02:19:06;99286.25;;;1.37;100.00
53011;BME280;42803;55.762;38.084;2023-04-29T02:21:38;99276.88;;;1.37;100.00
53011;BME280;42803;55.762;38.084;2023-04-29T02:24:07;99296.38;;;1.35;100.00
53011;BME280;42803;55.762;38.084;2023-04-29T02:26:38;99291.38;;;1.37;100.00
53011;BME280;42803;55.762;38.084;2023-04-29T02:29:07;99305.00;;;1.36;100.00
53011;BME280;42803;55.762;38.084;2023-04-29T02:31:36;99308.72;;;1.31;100.00
53011;BME280;42803;55.762;38.084;2023-04-29T02:34:05;99311.72;;;1.27;100.00
53011;BME280;42803;55.762;38.084;2023-04-29T02:36:34;99319.09;;;1.24;100.00
53011;BME280;42803;55.762;38.084;2023-04-29T02:39:03;99315.41;;;1.21;100.00
53011;BME280;42803;55.762;38.084;2023-04-29T02:41:33;99323.53;;;1.17;100.00
53011;BME280;42803;55.762;38.084;2023-04-29T02:44:03;99323.72;;;1.19;100.00
53011;BME280;42803;55.762;38.084;2023-04-29T02:46:32;99331.44;;;1.19;100.00
53011;BME280;42803;55.762;38.084;2023-04-29T02:49:03;99335.91;;;1.13;100.00
53011;BME280;42803;55.762;38.084;2023-04-29T02:51:32;99346.25;;;1.06;100.00
53011;BME280;42803;55.762;38.084;2023-04-29T02:54:01;99360.25;;;1.01;100.00
53011;BME280;42803;55.762;38.084;2023-04-29T02:56:30;99353.69;;;0.95;100.00
53011;BME280;42803;55.762;38.084;2023-04-29T02:58:59;99366.59;;;0.88;100.00
53011;BME280;42803;55.762;38.084;2023-04-29T03:01:30;99357.03;;;0.87;100.00
53011;BME280;42803;55.762;38.084;2023-04-29T03:03:59;99375.66;;;0.78;100.00
53011;BME280;42803;55.762;38.084;2023-04-29T03:06:28;99376.09;;;0.66;100.00
53011;BME280;42803;55.762;38.084;2023-04-29T03:08:58;99375.16;;;0.73;100.00
53011;BME280;42803;55.762;38.084;2023-04-29T03:11:27;99389.16;;;0.61;100.00
53011;BME280;42803;55.762;38.084;2023-04-29T03:13:56;99379.88;;;0.54;100.00
53011;BME280;42803;55.762;38.084;2023-04-29T03:16:25;99390.91;;;0.46;100.00
53011;BME280;42803;55.762;38.084;2023-04-29T03:18:57;99388.94;;;0.36;100.00
53011;BME280;42803;55.762;38.084;2023-04-29T03:21:26;99396.50;;;0.35;100.00
53011;BME280;42803;55.762;38.084;2023-04-29T03:23:56;99407.00;;;0.15;100.00
53011;BME280;42803;55.762;38.084;2023-04-29T03:26:32;99409.28;;;0.05;100.00
53011;BME280;42803;55.762;38.084;2023-04-29T03:29:03;99393.69;;;0.03;100.00
53011;BME280;42803;55.762;38.084;2023-04-29T03:31:33;99394.59;;;0.04;100.00
53011;BME280;42803;55.762;38.084;2023-04-29T03:34:04;99401.22;;;-0.06;100.00
53011;BME280;42803;55.762;38.084;2023-04-29T03:36:37;99413.19;;;-0.20;100.00
53011;BME280;42803;55.762;38.084;2023-04-29T03:39:07;99408.97;;;-0.20;100.00
53011;BME280;42803;55.762;38.084;2023-04-29T03:41:37;99404.81;;;-0.27;100.00
53011;BME280;42803;55.762;38.084;2023-04-29T03:44:06;99403.72;;;-0.36;100.00
53011;BME280;42803;55.762;38.084;2023-04-29T03:46:35;99412.16;;;-0.44;100.00
53011;BME280;42803;55.762;38.084;2023-04-29T03:49:05;99407.41;;;-0.48;100.00
53011;BME280;42803;55.762;38.084;2023-04-29T03:51:34;99416.91;;;-0.54;100.00
53011;BME280;42803;55.762;38.084;2023-04-29T03:54:10;99409.59;;;-0.58;100.00
53011;BME280;42803;55.762;38.084;2023-04-29T03:56:40;99416.38;;;-0.66;100.00
53011;BME280;42803;55.762;38.084;2023-04-29T03:59:09;99413.28;;;-0.70;100.00
53011;BME280;42803;55.762;38.084;2023-04-29T04:01:40;99425.03;;;-0.72;100.00
53011;BME280;42803;55.762;38.084;2023-04-29T04:04:10;99424.06;;;-0.73;100.00
53011;BME280;42803;55.762;38.084;2023-04-29T04:06:43;99431.59;;;-0.75;100.00
53011;BME280;42803;55.762;38.084;2023-04-29T04:09:20;99434.16;;;-0.75;100.00
53011;BME280;42803;55.762;38.084;2023-04-29T04:11:49;99439.28;;;-0.75;100.00
53011;BME280;42803;55.762;38.084;2023-04-29T04:14:19;99440.41;;;-0.72;100.00
53011;BME280;42803;55.762;38.084;2023-04-29T04:16:49;99431.59;;;-0.75;100.00
53011;BME280;42803;55.762;38.084;2023-04-29T04:19:20;99444.25;;;-0.76;100.00
53011;BME280;42803;55.762;38.084;2023-04-29T04:21:49;99436.34;;;-0.78;100.00
53011;BME280;42803;55.762;38.084;2023-04-29T04:24:18;99441.84;;;-0.75;100.00
53011;BME280;42803;55.762;38.084;2023-04-29T04:26:47;99441.47;;;-0.70;100.00
53011;BME280;42803;55.762;38.084;2023-04-29T04:29:21;99439.47;;;-0.73;100.00
53011;BME280;42803;55.762;38.084;2023-04-29T04:31:57;99441.31;;;-0.72;100.00
53011;BME280;42803;55.762;38.084;2023-04-29T04:34:27;99440.75;;;-0.69;100.00
53011;BME280;42803;55.762;38.084;2023-04-29T04:37:00;99439.28;;;-0.67;100.00
53011;BME280;42803;55.762;38.084;2023-04-29T04:39:32;99436.34;;;-0.63;100.00
53011;BME280;42803;55.762;38.084;2023-04-29T04:42:01;99441.66;;;-0.55;100.00
53011;BME280;42803;55.762;38.084;2023-04-29T04:44:32;99435.06;;;-0.53;100.00
53011;BME280;42803;55.762;38.084;2023-04-29T04:47:07;99447.88;;;-0.45;100.00
53011;BME280;42803;55.762;38.084;2023-04-29T04:50:00;99444.38;;;-0.39;100.00
53011;BME280;42803;55.762;38.084;2023-04-29T04:52:32;99445.09;;;-0.33;100.00
53011;BME280;42803;55.762;38.084;2023-04-29T04:55:14;99452.06;;;-0.32;100.00
53011;BME280;42803;55.762;38.084;2023-04-29T04:57:47;99439.03;;;-0.19;100.00
53011;BME280;42803;55.762;38.084;2023-04-29T05:00:16;99444.88;;;-0.13;100.00
53011;BME280;42803;55.762;38.084;2023-04-29T05:02:48;99442.44;;;-0.04;100.00
53011;BME280;42803;55.762;38.084;2023-04-29T05:05:19;99438.22;;;0.04;100.00
53011;BME280;42803;55.762;38.084;2023-04-29T05:07:48;99447.16;;;0.14;100.00
53011;BME280;42803;55.762;38.084;2023-04-29T05:10:23;99435.78;;;0.19;100.00
53011;BME280;42803;55.762;38.084;2023-04-29T05:12:56;99439.41;;;0.29;100.00
53011;BME280;42803;55.762;38.084;2023-04-29T05:15:25;99429.13;;;0.36;100.00
53011;BME280;42803;55.762;38.084;2023-04-29T05:17:57;99440.41;;;0.45;100.00
53011;BME280;42803;55.762;38.084;2023-04-29T05:20:28;99440.00;;;0.56;100.00
53011;BME280;42803;55.762;38.084;2023-04-29T05:23:00;99429.78;;;0.79;100.00
53011;BME280;42803;55.762;38.084;2023-04-29T05:25:32;99432.41;;;0.95;100.00
53011;BME280;42803;55.762;38.084;2023-04-29T05:28:02;99431.66;;;1.03;100.00
53011;BME280;42803;55.762;38.084;2023-04-29T05:30:33;99438.72;;;1.13;100.00
53011;BME280;42803;55.762;38.084;2023-04-29T05:33:05;99432.75;;;1.21;100.00
53011;BME280;42803;55.762;38.084;2023-04-29T05:35:36;99434.03;;;1.25;100.00
53011;BME280;42803;55.762;38.084;2023-04-29T05:38:06;99430.59;;;1.40;100.00
53011;BME280;42803;55.762;38.084;2023-04-29T05:40:47;99433.03;;;1.54;100.00
53011;BME280;42803;55.762;38.084;2023-04-29T05:43:35;99434.22;;;1.65;100.00
53011;BME280;42803;55.762;38.084;2023-04-29T05:46:04;99443.03;;;1.83;100.00
53011;BME280;42803;55.762;38.084;2023-04-29T05:48:34;99445.38;;;2.04;100.00
53011;BME280;42803;55.762;38.084;2023-04-29T05:51:04;99455.94;;;2.14;100.00
53011;BME280;42803;55.762;38.084;2023-04-29T05:53:33;99469.31;;;2.19;100.00
53011;BME280;42803;55.762;38.084;2023-04-29T05:56:05;99469.78;;;2.24;100.00
53011;BME280;42803;55.762;38.084;2023-04-29T05:58:35;99470.06;;;2.34;100.00
53011;BME280;42803;55.762;38.084;2023-04-29T06:01:05;99471.28;;;2.53;100.00
53011;BME280;42803;55.762;38.084;2023-04-29T06:03:34;99473.34;;;2.64;100.00
53011;BME280;42803;55.762;38.084;2023-04-29T06:06:28;99477.97;;;2.76;100.00
53011;BME280;42803;55.762;38.084;2023-04-29T06:09:12;99480.88;;;2.79;100.00
53011;BME280;42803;55.762;38.084;2023-04-29T06:11:56;99486.88;;;2.86;100.00
53011;BME280;42803;55.762;38.084;2023-04-29T06:14:25;99487.44;;;2.84;100.00
53011;BME280;42803;55.762;38.084;2023-04-29T06:16:55;99502.25;;;2.78;100.00
53011;BME280;42803;55.762;38.084;2023-04-29T06:19:25;99499.19;;;2.73;100.00
53011;BME280;42803;55.762;38.084;2023-04-29T06:21:56;99490.44;;;2.80;100.00
53011;BME280;42803;55.762;38.084;2023-04-29T06:24:25;99493.78;;;2.79;100.00
53011;BME280;42803;55.762;38.084;2023-04-29T06:26:56;99510.44;;;2.82;100.00
53011;BME280;42803;55.762;38.084;2023-04-29T06:29:26;99501.81;;;2.82;100.00
53011;BME280;42803;55.762;38.084;2023-04-29T06:31:55;99497.41;;;2.81;100.00
53011;BME280;42803;55.762;38.084;2023-04-29T06:34:25;99507.97;;;2.91;100.00
53011;BME280;42803;55.762;38.084;2023-04-29T06:37:14;99512.50;;;2.93;100.00
53011;BME280;42803;55.762;38.084;2023-04-29T06:40:10;99509.25;;;3.03;100.00
53011;BME280;42803;55.762;38.084;2023-04-29T06:42:58;99522.63;;;3.08;100.00
53011;BME280;42803;55.762;38.084;2023-04-29T06:45:34;99528.22;;;3.04;100.00
53011;BME280;42803;55.762;38.084;2023-04-29T06:48:14;99526.78;;;3.14;100.00
53011;BME280;42803;55.762;38.084;2023-04-29T06:50:50;99529.47;;;3.32;100.00
53011;BME280;42803;55.762;38.084;2023-04-29T06:53:21;99546.06;;;3.42;100.00
53011;BME280;42803;55.762;38.084;2023-04-29T06:55:50;99547.31;;;3.46;100.00
53011;BME280;42803;55.762;38.084;2023-04-29T06:58:20;99550.44;;;3.59;100.00
53011;BME280;42803;55.762;38.084;2023-04-29T07:01:07;99552.75;;;3.74;100.00
53011;BME280;42803;55.762;38.084;2023-04-29T07:03:37;99555.06;;;3.71;100.00
53011;BME280;42803;55.762;38.084;2023-04-29T07:06:07;99552.88;;;3.91;100.00
53011;BME280;42803;55.762;38.084;2023-04-29T07:08:39;99559.19;;;4.19;100.00
53011;BME280;42803;55.762;38.084;2023-04-29T07:11:08;99558.94;;;4.33;100.00
53011;BME280;42803;55.762;38.084;2023-04-29T07:13:37;99566.03;;;4.78;100.00
53011;BME280;42803;55.762;38.084;2023-04-29T07:16:14;99561.75;;;4.96;100.00
53011;BME280;42803;55.762;38.084;2023-04-29T07:18:45;99568.91;;;4.89;100.00
53011;BME280;42803;55.762;38.084;2023-04-29T07:21:14;99576.00;;;5.53;100.00
53011;BME280;42803;55.762;38.084;2023-04-29T07:23:45;99565.44;;;6.31;100.00
53011;BME280;42803;55.762;38.084;2023-04-29T07:26:15;99571.16;;;6.46;100.00
53011;BME280;42803;55.762;38.084;2023-04-29T07:28:47;99572.72;;;6.35;100.00
53011;BME280;42803;55.762;38.084;2023-04-29T07:31:16;99570.78;;;6.51;100.00
53011;BME280;42803;55.762;38.084;2023-04-29T07:33:45;99563.34;;;6.73;100.00
53011;BME280;42803;55.762;38.084;2023-04-29T07:36:16;99563.28;;;6.82;100.00
53011;BME280;42803;55.762;38.084;2023-04-29T07:38:47;99571.94;;;6.36;100.00
53011;BME280;42803;55.762;38.084;2023-04-29T07:41:16;99565.31;;;6.76;100.00
53011;BME280;42803;55.762;38.084;2023-04-29T07:43:45;99579.22;;;6.68;100.00
53011;BME280;42803;55.762;38.084;2023-04-29T07:46:14;99573.13;;;7.14;100.00
53011;BME280;42803;55.762;38.084;2023-04-29T07:48:44;99580.16;;;7.25;100.00
53011;BME280;42803;55.762;38.084;2023-04-29T07:51:14;99587.13;;;7.16;100.00
53011;BME280;42803;55.762;38.084;2023-04-29T07:53:43;99589.59;;;6.95;100.00
53011;BME280;42803;55.762;38.084;2023-04-29T07:56:14;99598.81;;;7.40;100.00
53011;BME280;42803;55.762;38.084;2023-04-29T07:58:43;99593.44;;;7.76;100.00
53011;BME280;42803;55.762;38.084;2023-04-29T08:01:12;99600.78;;;7.90;100.00
53011;BME280;42803;55.762;38.084;2023-04-29T08:03:42;99601.66;;;7.80;100.00
53011;BME280;42803;55.762;38.084;2023-04-29T08:06:13;99611.41;;;8.51;100.00
53011;BME280;42803;55.762;38.084;2023-04-29T08:08:43;99597.47;;;8.12;100.00
53011;BME280;42803;55.762;38.084;2023-04-29T08:11:17;99620.19;;;7.46;100.00
53011;BME280;42803;55.762;38.084;2023-04-29T08:13:47;99624.06;;;6.94;100.00
53011;BME280;42803;55.762;38.084;2023-04-29T08:16:17;99614.34;;;6.92;100.00
53011;BME280;42803;55.762;38.084;2023-04-29T08:18:46;99617.44;;;7.44;100.00
53011;BME280;42803;55.762;38.084;2023-04-29T08:21:15;99620.50;;;7.40;100.00
53011;BME280;42803;55.762;38.084;2023-04-29T08:23:44;99604.31;;;8.01;100.00
53011;BME280;42803;55.762;38.084;2023-04-29T08:26:14;99612.66;;;7.68;100.00
53011;BME280;42803;55.762;38.084;2023-04-29T08:28:44;99628.09;;;7.47;100.00
53011;BME280;42803;55.762;38.084;2023-04-29T08:31:16;99619.84;;;7.80;100.00
53011;BME280;42803;55.762;38.084;2023-04-29T08:33:46;99616.38;;;7.90;100.00
53011;BME280;42803;55.762;38.084;2023-04-29T08:36:15;99606.72;;;8.47;100.00
53011;BME280;42803;55.762;38.084;2023-04-29T08:38:44;99609.88;;;8.94;100.00
53011;BME280;42803;55.762;38.084;2023-04-29T08:41:15;99611.31;;;8.31;100.00
53011;BME280;42803;55.762;38.084;2023-04-29T08:43:46;99616.56;;;8.41;100.00
53011;BME280;42803;55.762;38.084;2023-04-29T08:46:16;99612.09;;;8.30;100.00
53011;BME280;42803;55.762;38.084;2023-04-29T08:48:48;99615.72;;;8.22;100.00
53011;BME280;42803;55.762;38.084;2023-04-29T08:51:18;99617.00;;;8.56;100.00
53011;BME280;42803;55.762;38.084;2023-04-29T08:53:47;99622.88;;;8.84;100.00
53011;BME280;42803;55.762;38.084;2023-04-29T08:56:16;99623.13;;;8.87;100.00
53011;BME280;42803;55.762;38.084;2023-04-29T08:58:50;99638.38;;;9.13;100.00
53011;BME280;42803;55.762;38.084;2023-04-29T09:01:21;99637.19;;;9.30;100.00
53011;BME280;42803;55.762;38.084;2023-04-29T09:03:55;99639.25;;;9.44;100.00
53011;BME280;42803;55.762;38.084;2023-04-29T09:06:30;99646.84;;;9.21;100.00
53011;BME280;42803;55.762;38.084;2023-04-29T09:09:02;99641.88;;;9.03;100.00
53011;BME280;42803;55.762;38.084;2023-04-29T09:11:49;99645.81;;;9.09;100.00
53011;BME280;42803;55.762;38.084;2023-04-29T09:14:21;99639.78;;;8.79;100.00
53011;BME280;42803;55.762;38.084;2023-04-29T09:16:50;99644.41;;;8.42;100.00
53011;BME280;42803;55.762;38.084;2023-04-29T09:19:30;99647.94;;;8.53;100.00
53011;BME280;42803;55.762;38.084;2023-04-29T09:22:00;99648.91;;;8.94;100.00
53011;BME280;42803;55.762;38.084;2023-04-29T09:24:30;99643.56;;;8.83;100.00
53011;BME280;42803;55.762;38.084;2023-04-29T09:27:00;99648.91;;;9.25;100.00
53011;BME280;42803;55.762;38.084;2023-04-29T09:29:31;99663.91;;;9.90;100.00
53011;BME280;42803;55.762;38.084;2023-04-29T09:32:17;99647.13;;;10.19;100.00
53011;BME280;42803;55.762;38.084;2023-04-29T09:34:48;99651.44;;;9.76;100.00
53011;BME280;42803;55.762;38.084;2023-04-29T09:37:23;99655.94;;;9.36;95.02
53011;BME280;42803;55.762;38.084;2023-04-29T09:40:26;99676.91;;;9.07;99.65
53011;BME280;42803;55.762;38.084;2023-04-29T09:42:57;99662.31;;;9.30;100.00
53011;BME280;42803;55.762;38.084;2023-04-29T09:48:34;99664.66;;;9.99;90.93
53011;BME280;42803;55.762;38.084;2023-04-29T09:51:04;99677.41;;;10.07;97.71
53011;BME280;42803;55.762;38.084;2023-04-29T09:53:34;99681.06;;;9.46;99.33
53011;BME280;42803;55.762;38.084;2023-04-29T09:56:05;99680.78;;;9.53;97.23
53011;BME280;42803;55.762;38.084;2023-04-29T10:01:40;99681.31;;;10.12;95.36
53011;BME280;42803;55.762;38.084;2023-04-29T10:04:12;99684.28;;;10.16;93.43
53011;BME280;42803;55.762;38.084;2023-04-29T10:07:22;99682.09;;;9.58;95.30
53011;BME280;42803;55.762;38.084;2023-04-29T10:09:59;99687.56;;;9.31;95.95
53011;BME280;42803;55.762;38.084;2023-04-29T10:12:33;99689.81;;;9.46;94.60
53011;BME280;42803;55.762;38.084;2023-04-29T10:15:07;99696.44;;;9.53;90.00
53011;BME280;42803;55.762;38.084;2023-04-29T10:18:02;99689.41;;;9.62;94.25
53011;BME280;42803;55.762;38.084;2023-04-29T10:20:36;99698.66;;;9.18;96.51
53011;BME280;42803;55.762;38.084;2023-04-29T10:23:10;99703.06;;;8.98;99.18
53011;BME280;42803;55.762;38.084;2023-04-29T10:25:43;99706.59;;;9.19;93.50
53011;BME280;42803;55.762;38.084;2023-04-29T10:28:14;99714.78;;;9.85;89.43
53011;BME280;42803;55.762;38.084;2023-04-29T10:30:44;99701.44;;;10.67;85.27
53011;BME280;42803;55.762;38.084;2023-04-29T10:33:37;99694.69;;;10.59;80.64
53011;BME280;42803;55.762;38.084;2023-04-29T10:36:10;99699.50;;;11.08;79.50
53011;BME280;42803;55.762;38.084;2023-04-29T10:38:41;99705.84;;;11.12;78.95
53011;BME280;42803;55.762;38.084;2023-04-29T10:41:33;99684.06;;;11.11;76.33
53011;BME280;42803;55.762;38.084;2023-04-29T10:44:05;99707.81;;;11.14;73.83
53011;BME280;42803;55.762;38.084;2023-04-29T10:46:35;99699.69;;;10.78;70.03
53011;BME280;42803;55.762;38.084;2023-04-29T10:49:05;99720.63;;;10.67;71.56
53011;BME280;42803;55.762;38.084;2023-04-29T10:51:40;99730.28;;;11.12;69.06
53011;BME280;42803;55.762;38.084;2023-04-29T10:54:12;99719.72;;;11.11;64.63
53011;BME280;42803;55.762;38.084;2023-04-29T10:56:46;99717.31;;;11.47;68.32
53011;BME280;42803;55.762;38.084;2023-04-29T10:59:20;99720.16;;;11.84;66.39
53011;BME280;42803;55.762;38.084;2023-04-29T11:01:50;99723.50;;;11.60;70.63
53011;BME280;42803;55.762;38.084;2023-04-29T11:05:06;99718.75;;;11.66;70.49
53011;BME280;42803;55.762;38.084;2023-04-29T11:07:38;99712.06;;;11.81;70.60
53011;BME280;42803;55.762;38.084;2023-04-29T11:10:08;99721.97;;;12.32;69.97
53011;BME280;42803;55.762;38.084;2023-04-29T11:12:37;99737.50;;;12.29;67.90
53011;BME280;42803;55.762;38.084;2023-04-29T11:15:07;99732.63;;;11.77;68.41
53011;BME280;42803;55.762;38.084;2023-04-29T11:17:57;99730.88;;;11.54;64.95
53011;BME280;42803;55.762;38.084;2023-04-29T11:20:28;99721.13;;;11.29;67.08
53011;BME280;42803;55.762;38.084;2023-04-29T11:22:58;99720.84;;;11.48;68.33
53011;BME280;42803;55.762;38.084;2023-04-29T11:25:28;99731.31;;;11.60;66.63
53011;BME280;42803;55.762;38.084;2023-04-29T11:27:58;99731.50;;;11.73;69.91
53011;BME280;42803;55.762;38.084;2023-04-29T11:30:28;99729.56;;;11.82;68.87
53011;BME280;42803;55.762;38.084;2023-04-29T11:32:58;99741.69;;;12.27;64.74
53011;BME280;42803;55.762;38.084;2023-04-29T11:35:28;99741.03;;;11.73;64.33
53011;BME280;42803;55.762;38.084;2023-04-29T11:38:00;99727.59;;;11.22;66.21
53011;BME280;42803;55.762;38.084;2023-04-29T11:40:31;99734.78;;;10.81;69.53
53011;BME280;42803;55.762;38.084;2023-04-29T11:43:01;99733.81;;;10.69;70.16
53011;BME280;42803;55.762;38.084;2023-04-29T11:45:30;99731.84;;;10.66;67.26
53011;BME280;42803;55.762;38.084;2023-04-29T11:48:17;99738.44;;;10.61;70.16
53011;BME280;42803;55.762;38.084;2023-04-29T11:50:47;99733.75;;;10.79;68.73
53011;BME280;42803;55.762;38.084;2023-04-29T11:53:20;99724.94;;;11.11;68.75
53011;BME280;42803;55.762;38.084;2023-04-29T11:55:52;99723.09;;;11.10;67.33
53011;BME280;42803;55.762;38.084;2023-04-29T11:58:21;99723.84;;;11.19;67.56
53011;BME280;42803;55.762;38.084;2023-04-29T12:00:51;99726.28;;;11.39;69.57
53011;BME280;42803;55.762;38.084;2023-04-29T12:03:20;99725.41;;;11.51;69.64
53011;BME280;42803;55.762;38.084;2023-04-29T12:05:51;99715.19;;;11.20;69.92
53011;BME280;42803;55.762;38.084;2023-04-29T12:08:22;99720.78;;;11.03;69.49
53011;BME280;42803;55.762;38.084;2023-04-29T12:10:53;99714.13;;;11.06;68.66
53011;BME280;42803;55.762;38.084;2023-04-29T12:13:23;99718.78;;;11.10;68.44
53011;BME280;42803;55.762;38.084;2023-04-29T12:16:12;99722.06;;;10.64;70.92
53011;BME280;42803;55.762;38.084;2023-04-29T12:18:41;99737.03;;;10.44;70.13
53011;BME280;42803;55.762;38.084;2023-04-29T12:21:12;99727.72;;;10.26;70.20
53011;BME280;42803;55.762;38.084;2023-04-29T12:24:02;99733.91;;;9.96;68.66
53011;BME280;42803;55.762;38.084;2023-04-29T12:26:31;99736.81;;;9.79;66.71
53011;BME280;42803;55.762;38.084;2023-04-29T12:29:00;99737.44;;;9.76;68.91
53011;BME280;42803;55.762;38.084;2023-04-29T12:31:33;99731.69;;;9.80;72.44
53011;BME280;42803;55.762;38.084;2023-04-29T12:34:03;99727.81;;;9.75;71.62
53011;BME280;42803;55.762;38.084;2023-04-29T12:36:40;99730.69;;;9.88;72.37
53011;BME280;42803;55.762;38.084;2023-04-29T12:39:11;99739.25;;;9.87;70.65
53011;BME280;42803;55.762;38.084;2023-04-29T12:41:41;99726.72;;;10.04;72.09
53011;BME280;42803;55.762;38.084;2023-04-29T12:44:10;99745.47;;;10.10;70.68
53011;BME280;42803;55.762;38.084;2023-04-29T12:46:40;99735.31;;;10.02;70.26
53011;BME280;42803;55.762;38.084;2023-04-29T12:49:10;99734.34;;;10.22;71.36
53011;BME280;42803;55.762;38.084;2023-04-29T12:51:39;99736.84;;;10.31;70.18
53011;BME280;42803;55.762;38.084;2023-04-29T12:54:08;99730.28;;;10.36;70.27
53011;BME280;42803;55.762;38.084;2023-04-29T12:56:39;99728.94;;;10.52;70.26
53011;BME280;42803;55.762;38.084;2023-04-29T12:59:09;99729.34;;;10.68;70.78
53011;BME280;42803;55.762;38.084;2023-04-29T13:01:38;99718.91;;;10.68;68.06
53011;BME280;42803;55.762;38.084;2023-04-29T13:04:08;99712.09;;;10.80;66.08
53011;BME280;42803;55.762;38.084;2023-04-29T13:06:38;99708.16;;;11.19;68.92
53011;BME280;42803;55.762;38.084;2023-04-29T13:09:08;99719.59;;;11.43;69.33
53011;BME280;42803;55.762;38.084;2023-04-29T13:11:46;99713.88;;;11.37;64.60
53011;BME280;42803;55.762;38.084;2023-04-29T13:14:16;99710.88;;;11.20;61.83
53011;BME280;42803;55.762;38.084;2023-04-29T13:16:45;99720.88;;;11.14;62.82
53011;BME280;42803;55.762;38.084;2023-04-29T13:19:14;99714.28;;;11.19;63.81
53011;BME280;42803;55.762;38.084;2023-04-29T13:22:01;99715.28;;;11.43;63.27
53011;BME280;42803;55.762;38.084;2023-04-29T13:24:31;99719.41;;;11.63;62.34
53011;BME280;42803;55.762;38.084;2023-04-29T13:27:03;99719.88;;;11.58;60.43